Time;durP1;ratioP1;P1;durP2;ratioP2;P2;SDS_P1;SDS_P2;PMS_P1;PMS_P2;Temp;Humidity;BMP_temperature;BMP_pressure;BME280_temperature;BME280_humidity;BME280_pressure;Samples;Min_cycle;Max_cycle;Signal;HPM_P1;HPM_P2
2024/03/02 00:02:12;;;;;;;7.70;4.10;;;6.50;95.70;;;;;;4956755;28;20075;-83
2024/03/02 00:04:38;;;;;;;10.40;5.80;;;6.60;95.70;;;;;;4956591;28;20915;-83
2024/03/02 00:07:04;;;;;;;10.35;4.15;;;6.50;95.70;;;;;;4959017;28;20123;-82
2024/03/02 00:09:30;;;;;;;8.90;4.55;;;6.50;95.70;;;;;;4968716;28;20129;-83
2024/03/02 00:11:56;;;;;;;9.20;4.28;;;6.50;95.70;;;;;;4963072;28;20050;-82
2024/03/02 00:14:24;;;;;;;6.53;2.72;;;6.50;95.60;;;;;;4954093;28;20058;-83
2024/03/02 00:16:51;;;;;;;8.25;2.92;;;6.50;95.70;;;;;;4977232;28;20571;-82
2024/03/02 00:19:17;;;;;;;12.45;3.80;;;6.50;95.70;;;;;;4972842;28;20026;-83
2024/03/02 00:21:43;;;;;;;7.82;3.72;;;6.50;95.70;;;;;;4973883;28;20043;-83
2024/03/02 00:24:21;;;;;;;5.65;2.25;;;6.60;95.70;;;;;;4954738;28;20425;-82
2024/03/02 00:26:47;;;;;;;7.00;3.53;;;6.60;95.60;;;;;;4971861;28;20113;-82
2024/03/02 00:29:16;;;;;;;7.10;3.30;;;6.60;95.60;;;;;;4972559;28;20859;-83
2024/03/02 00:31:41;;;;;;;5.45;2.45;;;6.60;95.50;;;;;;4990683;28;20437;-82
2024/03/02 00:34:07;;;;;;;3.80;1.98;;;6.60;95.30;;;;;;4973540;28;20024;-82
2024/03/02 00:36:33;;;;;;;5.05;2.13;;;6.60;95.20;;;;;;4976749;28;20043;-83
2024/03/02 00:38:59;;;;;;;4.13;2.15;;;6.60;95.10;;;;;;4976945;28;20450;-82
2024/03/02 00:41:30;;;;;;;3.70;1.95;;;6.50;95.20;;;;;;4974437;28;20070;-82
2024/03/02 00:44:03;;;;;;;4.55;1.90;;;6.50;95.20;;;;;;4976196;28;20108;-82
2024/03/02 00:46:34;;;;;;;3.90;1.50;;;6.40;95.30;;;;;;4968592;28;20109;-82
2024/03/02 00:49:04;;;;;;;4.28;2.05;;;6.40;95.30;;;;;;4955293;28;20038;-83
2024/03/02 00:51:32;;;;;;;3.92;2.00;;;6.40;95.30;;;;;;4972535;28;20042;-83
2024/03/02 00:54:03;;;;;;;4.00;2.10;;;6.30;95.40;;;;;;4976986;28;20818;-83
2024/03/02 00:56:30;;;;;;;5.32;2.22;;;6.30;95.50;;;;;;4974071;28;20623;-82
2024/03/02 00:58:56;;;;;;;4.28;1.80;;;6.30;95.40;;;;;;4976838;28;20496;-83
2024/03/02 01:01:23;;;;;;;4.45;2.17;;;6.20;95.40;;;;;;4974597;28;20117;-83
2024/03/02 01:03:49;;;;;;;2.80;2.00;;;6.20;95.40;;;;;;4978151;28;20030;-83
2024/03/02 01:06:16;;;;;;;3.67;2.13;;;6.20;95.50;;;;;;4972006;28;20042;-85
2024/03/02 01:08:41;;;;;;;4.85;2.33;;;6.20;95.40;;;;;;4960077;28;20568;-84
2024/03/02 01:11:07;;;;;;;5.28;2.15;;;6.20;95.50;;;;;;4964375;28;20109;-84
2024/03/02 01:13:33;;;;;;;5.18;2.20;;;6.10;95.50;;;;;;4973936;28;20377;-83
2024/03/02 01:15:59;;;;;;;4.80;2.28;;;6.10;95.50;;;;;;4985666;28;20070;-83
2024/03/02 01:18:25;;;;;;;4.90;2.22;;;6.10;95.40;;;;;;4976153;28;20483;-83
2024/03/02 01:20:55;;;;;;;4.70;2.28;;;6.10;95.50;;;;;;4974190;28;20038;-82
2024/03/02 01:23:22;;;;;;;4.35;2.13;;;6.10;95.50;;;;;;4977223;28;20022;-84
2024/03/02 01:25:48;;;;;;;5.70;2.72;;;6.10;95.50;;;;;;4967508;28;20045;-83
2024/03/02 01:28:14;;;;;;;6.30;2.60;;;6.10;95.40;;;;;;4953502;28;20405;-83
2024/03/02 01:30:40;;;;;;;5.55;2.90;;;6.10;95.40;;;;;;4963479;28;20038;-83
2024/03/02 01:33:06;;;;;;;5.63;2.42;;;6.10;95.40;;;;;;4977197;28;20440;-83
2024/03/02 01:35:32;;;;;;;6.22;2.50;;;6.10;95.40;;;;;;4979380;28;20035;-84
2024/03/02 01:37:58;;;;;;;8.40;3.08;;;6.10;95.40;;;;;;5001515;28;20154;-82
2024/03/02 01:40:27;;;;;;;7.57;3.00;;;6.00;95.40;;;;;;4996650;28;20119;-84
2024/03/02 01:42:57;;;;;;;9.23;3.88;;;6.10;95.40;;;;;;4971553;28;20023;-83
2024/03/02 01:45:23;;;;;;;7.28;3.13;;;6.00;95.40;;;;;;4962196;28;20410;-82
2024/03/02 01:47:50;;;;;;;8.68;3.05;;;6.10;95.50;;;;;;4976279;28;20585;-83
2024/03/02 01:50:16;;;;;;;7.53;3.20;;;6.10;95.40;;;;;;4978312;28;20046;-83
2024/03/02 01:52:44;;;;;;;9.02;3.47;;;6.10;95.30;;;;;;4979067;28;20038;-81
2024/03/02 01:55:09;;;;;;;8.48;3.38;;;6.00;95.30;;;;;;4973861;28;20027;-83
2024/03/02 01:57:35;;;;;;;10.20;4.18;;;6.00;95.30;;;;;;4961960;28;20025;-83
2024/03/02 02:00:01;;;;;;;8.38;4.00;;;6.00;95.20;;;;;;4955439;28;20096;-83
2024/03/02 02:02:27;;;;;;;8.82;3.95;;;5.90;95.40;;;;;;4958221;28;20469;-83
2024/03/02 02:04:52;;;;;;;8.93;4.18;;;6.00;95.40;;;;;;4957748;28;20089;-83
2024/03/02 02:07:19;;;;;;;8.48;4.18;;;5.90;95.40;;;;;;4978807;28;20194;-83
2024/03/02 02:09:44;;;;;;;7.57;4.20;;;6.00;95.40;;;;;;4976372;28;20089;-82
2024/03/02 02:12:10;;;;;;;9.95;4.95;;;5.90;95.40;;;;;;4977981;28;20039;-83
2024/03/02 02:14:36;;;;;;;10.80;5.18;;;5.90;95.50;;;;;;4980279;28;20357;-82
2024/03/02 02:17:02;;;;;;;8.30;4.68;;;5.90;95.40;;;;;;4977400;28;20093;-83
2024/03/02 02:19:28;;;;;;;9.02;4.35;;;5.80;95.40;;;;;;4980707;28;20058;-83
2024/03/02 02:21:54;;;;;;;9.63;4.50;;;5.80;95.50;;;;;;4978726;28;20453;-83
2024/03/02 02:24:20;;;;;;;9.40;4.95;;;5.80;95.50;;;;;;4975678;28;20022;-81
2024/03/02 02:26:45;;;;;;;9.55;4.93;;;5.80;95.40;;;;;;4976507;28;20529;-83
2024/03/02 02:29:11;;;;;;;10.23;5.70;;;5.80;95.50;;;;;;4969138;28;20035;-83
2024/03/02 02:31:41;;;;;;;8.20;4.53;;;5.80;95.40;;;;;;4976410;28;20053;-83
2024/03/02 02:34:07;;;;;;;8.13;4.90;;;5.70;95.40;;;;;;4975695;28;20117;-83
2024/03/02 02:36:34;;;;;;;11.05;5.10;;;5.80;95.50;;;;;;4979184;28;20053;-83
2024/03/02 02:39:04;;;;;;;10.88;5.10;;;5.70;95.50;;;;;;4978775;28;20023;-83
2024/03/02 02:41:30;;;;;;;8.57;4.57;;;5.70;95.60;;;;;;4977537;28;20034;-84
2024/03/02 02:43:56;;;;;;;9.93;5.55;;;5.80;95.60;;;;;;4977926;28;20025;-83
2024/03/02 02:46:22;;;;;;;10.13;4.72;;;5.80;95.60;;;;;;4965395;28;20061;-83
2024/03/02 02:48:48;;;;;;;10.70;4.80;;;5.80;95.50;;;;;;4975547;28;20046;-83
2024/03/02 02:51:13;;;;;;;10.75;4.28;;;5.90;95.40;;;;;;4978915;28;20038;-82
2024/03/02 02:53:41;;;;;;;9.02;4.13;;;5.90;95.30;;;;;;4977698;28;20476;-84
2024/03/02 02:56:07;;;;;;;9.75;4.25;;;5.80;95.20;;;;;;4986550;28;20022;-83
2024/03/02 02:58:33;;;;;;;10.68;4.22;;;5.80;95.00;;;;;;4975980;28;20026;-83
2024/03/02 03:00:58;;;;;;;9.88;4.28;;;5.80;95.10;;;;;;4963851;28;20046;-83
2024/03/02 03:03:24;;;;;;;9.65;3.85;;;5.80;95.00;;;;;;4957127;28;20022;-83
2024/03/02 03:05:50;;;;;;;12.48;4.30;;;5.80;94.90;;;;;;4955900;28;20115;-82
2024/03/02 03:08:18;;;;;;;8.63;3.70;;;5.80;94.90;;;;;;4950864;28;20084;-82
2024/03/02 03:10:44;;;;;;;8.63;3.80;;;5.80;94.90;;;;;;4965647;28;20054;-83
2024/03/02 03:13:10;;;;;;;8.32;3.45;;;5.80;94.90;;;;;;4976934;28;20026;-83
2024/03/02 03:15:36;;;;;;;9.13;3.72;;;5.70;94.90;;;;;;4974484;28;20101;-83
2024/03/02 03:18:03;;;;;;;9.82;4.15;;;5.70;95.00;;;;;;4976987;28;20121;-82
2024/03/02 03:20:29;;;;;;;7.80;3.50;;;5.70;94.90;;;;;;4975812;28;20073;-83
2024/03/02 03:22:55;;;;;;;8.43;4.03;;;5.70;94.90;;;;;;4978204;28;20429;-83
2024/03/02 03:25:21;;;;;;;7.80;3.67;;;5.60;94.90;;;;;;4977822;28;20460;-83
2024/03/02 03:27:46;;;;;;;8.82;3.83;;;5.60;95.00;;;;;;4975820;28;20026;-84
2024/03/02 03:30:12;;;;;;;8.25;3.60;;;5.60;95.00;;;;;;4977879;28;20184;-82
2024/03/02 03:32:38;;;;;;;10.77;3.97;;;5.70;95.00;;;;;;4974068;28;20022;-83
2024/03/02 03:35:05;;;;;;;9.85;3.70;;;5.60;95.00;;;;;;4977234;28;20056;-83
2024/03/02 03:37:32;;;;;;;8.80;3.50;;;5.60;94.90;;;;;;4976503;28;20496;-81
2024/03/02 03:40:09;;;;;;;11.02;3.33;;;5.60;94.90;;;;;;4976832;28;20069;-82
2024/03/02 03:42:35;;;;;;;9.32;3.65;;;5.60;94.90;;;;;;4977566;28;20033;-81
2024/03/02 03:45:01;;;;;;;7.15;3.45;;;5.60;94.80;;;;;;4970765;28;20044;-84
2024/03/02 03:47:27;;;;;;;10.27;3.72;;;5.60;94.80;;;;;;4969729;28;20319;-83
2024/03/02 03:49:53;;;;;;;8.52;2.95;;;5.60;94.80;;;;;;4973654;28;20050;-84
2024/03/02 03:52:18;;;;;;;8.60;3.45;;;5.60;94.60;;;;;;4970801;28;20383;-83
2024/03/02 03:54:44;;;;;;;9.05;3.25;;;5.60;94.50;;;;;;4975342;28;20042;-83
2024/03/02 03:57:10;;;;;;;9.00;3.80;;;5.60;94.40;;;;;;4977229;28;20524;-83
2024/03/02 03:59:37;;;;;;;8.52;3.70;;;5.60;94.40;;;;;;4974987;28;20057;-82
2024/03/02 04:02:03;;;;;;;7.93;3.40;;;5.60;94.30;;;;;;4963365;28;21026;-83
2024/03/02 04:04:28;;;;;;;10.73;3.42;;;5.60;94.40;;;;;;4975651;28;20113;-83
2024/03/02 04:06:54;;;;;;;7.30;3.30;;;5.60;94.30;;;;;;4977647;28;20457;-82
2024/03/02 04:09:20;;;;;;;9.32;3.35;;;5.60;94.30;;;;;;4975761;28;20425;-83
2024/03/02 04:11:46;;;;;;;9.77;3.00;;;5.60;94.30;;;;;;4973084;28;20034;-83
2024/03/02 04:14:12;;;;;;;8.32;3.40;;;5.60;94.30;;;;;;4976180;28;20053;-82
2024/03/02 04:16:38;;;;;;;8.30;3.05;;;5.60;94.30;;;;;;4971866;28;20033;-83
2024/03/02 04:19:04;;;;;;;10.82;3.47;;;5.60;94.20;;;;;;4953153;28;20038;-82
2024/03/02 04:21:30;;;;;;;6.70;3.08;;;5.60;94.30;;;;;;4971261;28;20046;-83
2024/03/02 04:23:58;;;;;;;12.30;3.47;;;5.60;94.30;;;;;;4975396;28;20358;-82
2024/03/02 04:26:25;;;;;;;12.45;3.70;;;5.60;94.30;;;;;;4956493;28;20140;-83
2024/03/02 04:28:51;;;;;;;11.30;3.70;;;5.60;94.30;;;;;;4956972;28;20019;-83
2024/03/02 04:31:17;;;;;;;10.88;3.45;;;5.60;94.30;;;;;;4970042;28;20121;-82
2024/03/02 04:33:43;;;;;;;11.95;3.88;;;5.60;94.30;;;;;;4977796;28;20429;-83
2024/03/02 04:36:11;;;;;;;7.88;3.28;;;5.60;94.50;;;;;;4964505;28;20489;-82
2024/03/02 04:38:38;;;;;;;6.78;3.10;;;5.50;94.50;;;;;;4954014;28;20034;-81
2024/03/02 04:41:07;;;;;;;10.40;3.67;;;5.50;94.60;;;;;;4968368;28;20133;-82
2024/03/02 04:43:34;;;;;;;10.48;3.55;;;5.50;94.70;;;;;;4973132;28;20053;-81
2024/03/02 04:46:00;;;;;;;7.88;3.10;;;5.50;94.70;;;;;;4974513;28;20468;-82
2024/03/02 04:48:26;;;;;;;12.30;3.33;;;5.50;94.70;;;;;;4976266;28;20030;-82
2024/03/02 04:50:52;;;;;;;10.95;3.42;;;5.50;94.70;;;;;;4972663;28;20046;-82
2024/03/02 04:53:18;;;;;;;10.27;3.25;;;5.50;94.60;;;;;;4977173;28;20023;-81
2024/03/02 04:58:09;;;;;;;10.40;3.33;;;5.40;94.80;;;;;;4979475;28;20173;-81
2024/03/02 05:00:35;;;;;;;10.73;3.30;;;5.40;94.70;;;;;;4976111;28;20524;-82
2024/03/02 05:03:01;;;;;;;12.80;3.78;;;5.40;94.80;;;;;;4977714;28;20568;-82
2024/03/02 05:05:26;;;;;;;10.13;3.40;;;5.40;94.90;;;;;;4975557;28;20031;-82
2024/03/02 05:07:52;;;;;;;9.02;3.28;;;5.40;94.90;;;;;;4976942;28;20033;-82
2024/03/02 05:10:18;;;;;;;8.40;3.25;;;5.40;94.80;;;;;;4976565;28;20034;-82
2024/03/02 05:15:14;;;;;;;11.38;3.10;;;5.30;95.00;;;;;;4975052;28;20034;-82
2024/03/02 05:17:42;;;;;;;10.07;3.53;;;5.30;95.10;;;;;;4964904;28;20088;-82
2024/03/02 05:20:09;;;;;;;11.35;3.75;;;5.30;95.10;;;;;;4976225;28;20038;-82
2024/03/02 05:22:35;;;;;;;10.05;3.90;;;5.30;95.00;;;;;;4979388;28;20460;-82
2024/03/02 05:25:02;;;;;;;11.77;3.92;;;5.30;95.20;;;;;;4973074;28;20027;-82
2024/03/02 05:27:28;;;;;;;11.32;3.50;;;5.30;95.10;;;;;;4978594;28;20030;-82
2024/03/02 05:29:53;;;;;;;11.48;3.40;;;5.30;95.00;;;;;;4977936;28;20050;-82
2024/03/02 05:32:19;;;;;;;11.13;3.33;;;5.20;95.10;;;;;;4963118;28;20074;-82
2024/03/02 05:34:44;;;;;;;9.85;2.95;;;5.20;95.10;;;;;;4961017;28;20046;-81
2024/03/02 05:37:10;;;;;;;9.40;3.35;;;5.20;95.10;;;;;;4975228;28;20492;-82
2024/03/02 05:39:36;;;;;;;8.95;3.42;;;5.20;95.10;;;;;;4975561;28;20042;-82
2024/03/02 05:42:03;;;;;;;8.93;2.92;;;5.20;95.10;;;;;;4975378;28;20046;-81
2024/03/02 05:44:28;;;;;;;12.60;3.17;;;5.10;95.20;;;;;;4959169;28;20043;-81
2024/03/02 05:46:54;;;;;;;12.50;3.83;;;5.20;95.10;;;;;;4975832;28;20039;-80
2024/03/02 05:49:20;;;;;;;8.48;2.97;;;5.20;95.20;;;;;;4975333;28;20027;-81
2024/03/02 05:51:45;;;;;;;12.32;3.10;;;5.20;95.00;;;;;;4971281;28;20034;-82
2024/03/02 05:54:11;;;;;;;12.30;3.65;;;5.20;94.90;;;;;;4973971;28;20303;-82
2024/03/02 05:56:36;;;;;;;14.23;3.35;;;5.20;94.90;;;;;;4977655;28;20535;-81
2024/03/02 05:59:15;;;;;;;14.25;3.30;;;5.20;94.90;;;;;;4978252;28;20022;-82
2024/03/02 06:01:48;;;;;;;12.55;3.75;;;5.20;94.90;;;;;;4974354;28;20031;-82
2024/03/02 06:04:14;;;;;;;11.00;3.80;;;5.10;94.90;;;;;;4974181;28;20018;-82
2024/03/02 06:06:43;;;;;;;12.48;4.05;;;5.10;95.00;;;;;;4975927;28;20509;-83
2024/03/02 06:09:09;;;;;;;13.85;3.95;;;5.10;95.00;;;;;;4980329;28;20529;-82
2024/03/02 06:11:38;;;;;;;12.38;3.60;;;5.10;95.00;;;;;;4963408;28;20149;-81
2024/03/02 06:14:06;;;;;;;13.15;3.60;;;5.10;95.00;;;;;;4961278;28;20151;-82
2024/03/02 06:16:32;;;;;;;9.10;3.45;;;5.10;95.00;;;;;;4976105;28;20046;-82
2024/03/02 06:18:58;;;;;;;9.52;3.30;;;5.10;95.10;;;;;;4976807;28;20078;-82
2024/03/02 06:21:24;;;;;;;9.77;3.60;;;5.10;95.10;;;;;;4965810;28;20043;-83
2024/03/02 06:23:50;;;;;;;11.88;3.47;;;5.10;95.10;;;;;;4960799;28;20505;-82
2024/03/02 06:26:16;;;;;;;11.25;3.30;;;5.10;95.10;;;;;;4964799;28;20055;-82
2024/03/02 06:28:42;;;;;;;12.77;3.17;;;5.20;95.10;;;;;;4958280;28;20022;-83
2024/03/02 06:31:08;;;;;;;12.70;3.30;;;5.10;95.10;;;;;;4967146;28;20035;-82
2024/03/02 06:33:34;;;;;;;7.47;2.83;;;5.20;95.10;;;;;;4977071;28;20448;-81
2024/03/02 06:36:01;;;;;;;6.88;3.00;;;5.10;95.10;;;;;;4977314;28;20539;-82
2024/03/02 06:38:26;;;;;;;8.50;3.17;;;5.10;95.00;;;;;;4977600;28;20030;-82
2024/03/02 06:40:52;;;;;;;12.82;3.10;;;5.20;95.10;;;;;;4966021;28;20473;-82
2024/03/02 06:43:23;;;;;;;9.05;2.92;;;5.20;95.20;;;;;;4979132;28;20046;-82
2024/03/02 06:45:49;;;;;;;11.77;2.85;;;5.20;95.00;;;;;;4970595;28;20037;-82
2024/03/02 06:48:18;;;;;;;9.98;2.55;;;5.20;95.00;;;;;;4974601;28;20057;-83
2024/03/02 06:50:44;;;;;;;9.88;2.70;;;5.20;95.10;;;;;;4977226;28;20050;-83
2024/03/02 06:53:09;;;;;;;10.23;3.00;;;5.20;95.00;;;;;;4975057;28;20749;-82
2024/03/02 06:55:35;;;;;;;10.05;3.08;;;5.30;95.00;;;;;;4974659;28;20030;-82
2024/03/02 06:58:00;;;;;;;7.43;3.00;;;5.30;95.00;;;;;;4979333;28;20513;-82
2024/03/02 07:00:26;;;;;;;10.25;3.50;;;5.30;95.00;;;;;;4965655;28;20377;-82
2024/03/02 07:02:52;;;;;;;10.52;2.92;;;5.40;95.00;;;;;;4959108;28;20034;-82
2024/03/02 07:05:17;;;;;;;11.50;3.45;;;5.40;94.90;;;;;;4963711;28;20576;-83
2024/03/02 07:07:43;;;;;;;7.93;2.53;;;5.50;94.70;;;;;;4976520;28;20041;-82
2024/03/02 07:10:09;;;;;;;9.45;2.53;;;5.60;94.60;;;;;;4975980;28;20053;-81
2024/03/02 07:12:34;;;;;;;10.50;3.65;;;5.60;94.50;;;;;;4977289;28;20397;-81
2024/03/02 07:17:29;;;;;;;10.38;2.80;;;5.60;94.40;;;;;;4974138;28;20576;-82
2024/03/02 07:19:55;;;;;;;12.57;2.63;;;5.70;94.40;;;;;;4973737;28;20117;-80
2024/03/02 07:22:21;;;;;;;7.90;2.63;;;5.70;94.20;;;;;;4970339;28;20351;-82
2024/03/02 07:24:47;;;;;;;10.82;2.85;;;5.80;94.10;;;;;;4974172;28;20101;-74
2024/03/02 07:27:14;;;;;;;13.40;3.20;;;5.80;94.00;;;;;;4974490;28;20046;-75
2024/03/02 07:29:40;;;;;;;12.93;3.92;;;5.90;94.00;;;;;;4964432;28;20059;-75
2024/03/02 07:32:07;;;;;;;11.32;2.58;;;5.90;93.90;;;;;;4976513;28;20076;-75
2024/03/02 07:34:32;;;;;;;8.80;2.92;;;6.00;93.70;;;;;;4974360;28;20457;-74
2024/03/02 07:36:58;;;;;;;9.27;2.88;;;6.10;93.60;;;;;;4975296;28;20129;-74
2024/03/02 07:39:24;;;;;;;11.90;3.33;;;6.10;93.30;;;;;;4974643;28;20725;-74
2024/03/02 07:41:50;;;;;;;11.15;2.95;;;6.10;93.30;;;;;;4971586;28;20062;-76
2024/03/02 07:44:16;;;;;;;8.35;2.30;;;6.10;93.20;;;;;;4975923;28;20021;-78
2024/03/02 07:46:50;;;;;;;12.13;3.03;;;6.20;93.20;;;;;;4970081;28;20548;-76
2024/03/02 07:49:16;;;;;;;;;;;6.20;93.10;;;;;;4970571;28;20477;-79
2024/03/02 07:51:42;;;;;;;15.70;3.42;;;6.20;93.00;;;;;;4973564;28;20358;-76
2024/03/02 07:54:08;;;;;;;10.02;2.85;;;6.20;93.00;;;;;;4975357;28;20030;-77
2024/03/02 07:56:34;;;;;;;12.00;2.92;;;6.30;92.90;;;;;;4975253;28;20038;-77
2024/03/02 07:59:01;;;;;;;10.32;2.97;;;6.30;92.60;;;;;;4974149;28;20105;-76
2024/03/02 08:01:33;;;;;;;9.55;2.60;;;6.40;92.50;;;;;;4971321;28;20039;-75
2024/03/02 08:04:03;;;;;;;12.38;2.42;;;6.50;92.30;;;;;;4987640;28;20022;-76
2024/03/02 08:06:29;;;;;;;11.73;3.38;;;6.60;92.10;;;;;;4975566;28;20034;-76
2024/03/02 08:08:59;;;;;;;12.57;2.30;;;6.60;91.80;;;;;;4973637;28;20011;-77
2024/03/02 08:11:25;;;;;;;10.98;3.05;;;6.70;91.40;;;;;;4971016;28;20390;-76
2024/03/02 08:13:52;;;;;;;11.93;2.70;;;6.80;91.40;;;;;;4975952;28;20026;-76
2024/03/02 08:16:21;;;;;;;14.25;2.67;;;6.90;91.10;;;;;;4973213;28;20493;-77
2024/03/02 08:18:50;;;;;;;13.50;3.13;;;7.00;91.10;;;;;;4974465;28;20022;-72
2024/03/02 08:21:16;;;;;;;14.00;3.15;;;7.10;90.90;;;;;;4971901;28;20030;-75
2024/03/02 08:23:43;;;;;;;11.02;3.15;;;7.20;90.30;;;;;;4972856;28;20035;-74
2024/03/02 08:26:09;;;;;;;11.43;2.50;;;7.30;90.20;;;;;;4967897;28;20026;-73
2024/03/02 08:28:36;;;;;;;9.93;2.55;;;7.40;89.90;;;;;;4976246;28;20062;-74
2024/03/02 08:31:03;;;;;;;11.35;2.97;;;7.50;89.30;;;;;;4971154;28;20053;-74
2024/03/02 08:33:29;;;;;;;11.93;3.00;;;7.60;88.80;;;;;;4976783;28;20578;-75
2024/03/02 08:35:55;;;;;;;10.45;2.85;;;7.70;88.40;;;;;;4972829;28;20085;-74
2024/03/02 08:38:21;;;;;;;10.68;3.53;;;7.80;88.00;;;;;;4974284;28;20773;-74
2024/03/02 08:40:47;;;;;;;17.67;3.13;;;7.70;87.90;;;;;;4974357;28;20061;-73
2024/03/02 08:43:12;;;;;;;11.45;2.85;;;7.70;87.90;;;;;;4975131;28;20026;-73
2024/03/02 08:45:39;;;;;;;17.38;3.50;;;7.60;88.30;;;;;;4975281;28;20035;-74
2024/03/02 08:48:08;;;;;;;18.00;3.65;;;7.50;88.50;;;;;;4972145;28;20026;-74
2024/03/02 08:50:34;;;;;;;13.90;3.42;;;7.50;88.60;;;;;;4973414;28;20065;-75
2024/03/02 08:52:59;;;;;;;16.48;3.42;;;7.50;88.60;;;;;;4975674;28;20417;-74
2024/03/02 08:55:25;;;;;;;16.70;3.30;;;7.60;88.80;;;;;;4971653;28;20053;-74
2024/03/02 08:57:51;;;;;;;14.00;2.67;;;7.60;88.40;;;;;;4979511;28;20015;-73
2024/03/02 09:00:17;;;;;;;12.82;3.55;;;7.70;88.20;;;;;;4973077;28;20035;-74
2024/03/02 09:02:44;;;;;;;17.08;3.53;;;7.90;88.00;;;;;;4974191;28;20089;-75
2024/03/02 09:05:10;;;;;;;13.98;2.90;;;8.00;87.80;;;;;;4972141;28;20050;-73
2024/03/02 09:07:35;;;;;;;11.95;2.67;;;8.10;87.70;;;;;;4974228;28;20113;-74
2024/03/02 09:10:01;;;;;;;10.98;2.92;;;8.10;87.40;;;;;;4971858;28;20898;-73
2024/03/02 09:12:27;;;;;;;14.05;2.80;;;8.20;87.60;;;;;;4974843;28;20381;-73
2024/03/02 09:14:52;;;;;;;12.10;3.05;;;8.30;87.10;;;;;;4974056;28;20137;-72
2024/03/02 09:17:18;;;;;;;11.50;2.80;;;8.50;87.00;;;;;;4975594;28;20129;-74
2024/03/02 09:19:43;;;;;;;9.85;2.92;;;8.50;86.60;;;;;;4970539;28;20042;-76
2024/03/02 09:22:09;;;;;;;8.45;2.38;;;8.50;86.70;;;;;;4975597;28;20057;-77
2024/03/02 09:24:35;;;;;;;10.23;2.60;;;8.40;86.30;;;;;;4970600;28;20132;-76
2024/03/02 09:27:01;;;;;;;13.30;3.17;;;8.50;86.60;;;;;;4957882;28;20473;-76
2024/03/02 09:29:26;;;;;;;12.10;2.67;;;8.70;86.60;;;;;;4954695;28;22011;-74
2024/03/02 09:31:52;;;;;;;12.77;2.92;;;8.90;86.20;;;;;;4955870;28;20125;-76
2024/03/02 09:34:17;;;;;;;12.38;3.15;;;9.10;86.30;;;;;;4952186;28;20300;-75
2024/03/02 09:36:43;;;;;;;12.57;3.13;;;9.40;85.50;;;;;;4971801;28;20054;-75
2024/03/02 09:39:09;;;;;;;10.40;2.83;;;9.80;84.00;;;;;;4974013;28;20022;-77
2024/03/02 09:41:37;;;;;;;10.73;2.88;;;10.10;84.70;;;;;;4964602;28;20030;-75
2024/03/02 09:44:03;;;;;;;13.77;2.85;;;10.10;83.10;;;;;;4953021;28;20026;-76
2024/03/02 09:46:29;;;;;;;12.23;2.78;;;10.30;82.30;;;;;;4967519;28;20054;-75
2024/03/02 09:48:55;;;;;;;10.32;2.80;;;10.30;83.00;;;;;;4973967;28;20080;-76
2024/03/02 09:51:20;;;;;;;10.88;2.55;;;10.10;82.40;;;;;;4969658;28;20681;-78
2024/03/02 09:53:47;;;;;;;11.48;3.03;;;10.30;82.60;;;;;;4973389;28;20106;-75
2024/03/02 09:56:13;;;;;;;10.80;3.03;;;10.40;82.60;;;;;;4971660;28;20035;-74
2024/03/02 09:58:39;;;;;;;10.95;2.53;;;10.50;82.40;;;;;;4975364;28;20022;-75
2024/03/02 10:01:09;;;;;;;10.40;2.67;;;10.60;82.60;;;;;;4970641;28;20321;-74
2024/03/02 10:03:37;;;;;;;12.18;3.63;;;10.60;82.30;;;;;;4976095;28;20172;-76
2024/03/02 10:06:21;;;;;;;10.15;2.40;;;10.80;82.10;;;;;;4972395;28;20405;-77
2024/03/02 10:08:50;;;;;;;11.95;2.40;;;10.70;81.20;;;;;;4978382;28;20122;-74
2024/03/02 10:11:29;;;;;;;8.88;2.17;;;10.60;81.90;;;;;;4976990;28;20089;-75
2024/03/02 10:14:15;;;;;;;11.27;2.67;;;10.70;82.20;;;;;;4977912;28;20126;-74
2024/03/02 10:16:43;;;;;;;11.27;2.70;;;10.80;81.70;;;;;;4970975;28;20041;-78
2024/03/02 10:19:26;;;;;;;10.13;2.63;;;11.00;81.50;;;;;;4979373;28;20052;-75
2024/03/02 10:21:54;;;;;;;12.00;2.58;;;10.80;81.20;;;;;;4976403;28;20042;-75
2024/03/02 10:24:21;;;;;;;10.68;2.80;;;10.80;81.30;;;;;;4974434;28;20343;-74
2024/03/02 10:26:47;;;;;;;8.25;2.40;;;10.50;81.50;;;;;;4971184;28;20034;-75
2024/03/02 10:29:13;;;;;;;14.50;2.53;;;10.40;82.30;;;;;;4977711;28;20037;-74
2024/03/02 10:31:40;;;;;;;11.43;2.60;;;10.30;82.10;;;;;;4967731;28;20073;-76
2024/03/02 10:34:06;;;;;;;10.10;2.80;;;10.10;82.40;;;;;;4974887;28;20706;-74
2024/03/02 10:36:36;;;;;;;12.45;2.75;;;10.00;82.80;;;;;;4970001;28;20567;-79
2024/03/02 10:39:06;;;;;;;13.18;2.78;;;10.10;83.10;;;;;;4977048;28;20225;-79
2024/03/02 10:41:34;;;;;;;16.52;3.33;;;10.10;82.80;;;;;;4985750;28;20101;-79
2024/03/02 10:44:05;;;;;;;12.27;2.95;;;10.20;83.70;;;;;;4971821;28;20440;-78
2024/03/02 10:46:33;;;;;;;10.95;2.72;;;10.10;83.20;;;;;;4972668;28;20082;-79
2024/03/02 10:49:00;;;;;;;13.98;2.13;;;10.20;83.30;;;;;;4977783;28;20176;-79
2024/03/02 10:51:27;;;;;;;10.48;2.30;;;10.30;83.20;;;;;;4975132;28;20450;-78
2024/03/02 10:53:53;;;;;;;11.95;3.58;;;10.30;83.10;;;;;;4972379;28;20438;-82
2024/03/02 10:56:28;;;;;;;12.20;2.25;;;10.20;83.00;;;;;;4964935;28;20053;-79
2024/03/02 10:59:23;;;;;;;11.43;2.58;;;10.10;83.20;;;;;;4972448;28;20601;-80
2024/03/02 11:01:50;;;;;;;12.30;2.88;;;10.10;83.10;;;;;;4938037;28;20047;-80
2024/03/02 11:04:18;;;;;;;7.85;2.53;;;10.10;82.90;;;;;;4951377;28;20026;-79
2024/03/02 11:06:49;;;;;;;13.25;2.85;;;10.20;82.70;;;;;;4948027;28;20038;-81
2024/03/02 11:09:20;;;;;;;12.48;2.97;;;10.20;83.20;;;;;;4954491;28;20110;-80
2024/03/02 11:11:55;;;;;;;10.68;2.78;;;10.20;82.80;;;;;;4958597;28;20326;-81
2024/03/02 11:14:24;;;;;;;12.07;2.80;;;10.50;83.20;;;;;;4954218;28;20030;-81
2024/03/02 11:16:51;;;;;;;11.23;3.08;;;10.50;82.60;;;;;;4974562;28;20054;-81
2024/03/02 11:19:18;;;;;;;11.35;2.63;;;10.60;82.50;;;;;;4985564;28;20047;-81
2024/03/02 11:21:44;;;;;;;10.98;2.72;;;10.50;81.90;;;;;;4994768;28;20270;-82
2024/03/02 11:24:23;;;;;;;12.23;2.33;;;10.50;81.90;;;;;;4979977;28;20057;-80
2024/03/02 11:26:53;;;;;;;10.05;2.95;;;10.60;81.60;;;;;;4970472;28;20030;-80
2024/03/02 11:29:37;;;;;;;14.50;3.47;;;10.50;81.90;;;;;;4971753;28;20092;-81
2024/03/02 11:32:16;;;;;;;11.32;2.70;;;10.50;82.50;;;;;;4970679;28;20034;-80
2024/03/02 11:34:49;;;;;;;11.45;3.03;;;10.60;82.60;;;;;;4972006;28;20389;-77
2024/03/02 11:37:16;;;;;;;12.77;2.42;;;10.80;82.30;;;;;;4972419;28;20057;-76
2024/03/02 11:39:44;;;;;;;8.63;2.53;;;10.90;82.70;;;;;;4967305;28;20046;-76
2024/03/02 11:42:11;;;;;;;11.70;2.42;;;11.10;82.60;;;;;;4973736;28;21307;-76
2024/03/02 11:44:38;;;;;;;7.80;2.60;;;11.10;82.50;;;;;;4972816;28;20396;-75
2024/03/02 11:47:10;;;;;;;11.65;3.55;;;11.00;83.70;;;;;;4953742;28;20605;-76
2024/03/02 11:49:54;;;;;;;8.98;2.08;;;11.10;84.30;;;;;;4954080;28;20781;-77
2024/03/02 11:52:22;;;;;;;10.70;2.30;;;11.10;83.80;;;;;;4948721;28;20975;-77
2024/03/02 11:54:48;;;;;;;11.82;2.65;;;11.00;83.80;;;;;;4960006;28;20049;-77
2024/03/02 11:57:22;;;;;;;12.27;2.83;;;11.10;84.30;;;;;;4967886;28;20326;-76
2024/03/02 11:59:51;;;;;;;11.90;2.53;;;11.20;83.90;;;;;;4972591;28;20038;-76
2024/03/02 12:02:21;;;;;;;10.98;2.50;;;11.10;83.40;;;;;;4970796;28;20026;-76
2024/03/02 12:04:48;;;;;;;12.95;2.47;;;11.10;83.70;;;;;;4971785;28;20369;-77
2024/03/02 12:07:24;;;;;;;12.63;2.67;;;11.20;83.80;;;;;;4975898;28;20137;-76
2024/03/02 12:10:00;;;;;;;11.60;3.03;;;11.20;83.40;;;;;;4968785;28;20042;-77
2024/03/02 12:12:26;;;;;;;7.40;2.22;;;11.10;83.50;;;;;;4977272;28;20066;-76
2024/03/02 12:14:55;;;;;;;14.20;3.13;;;10.90;83.50;;;;;;4973691;28;20177;-76
2024/03/02 12:17:21;;;;;;;11.10;2.50;;;10.90;84.50;;;;;;4983431;28;20295;-76
2024/03/02 12:19:47;;;;;;;10.95;2.90;;;11.00;85.00;;;;;;4955314;28;20061;-78
2024/03/02 12:22:13;;;;;;;8.00;2.63;;;10.90;85.20;;;;;;4972860;28;20038;-77
2024/03/02 12:24:38;;;;;;;10.95;3.05;;;10.70;85.20;;;;;;4972881;28;20084;-75
2024/03/02 12:27:05;;;;;;;9.38;2.55;;;10.60;85.80;;;;;;4974760;28;20369;-76
2024/03/02 12:29:31;;;;;;;10.82;3.00;;;10.60;85.80;;;;;;4972808;28;20069;-78
2024/03/02 12:31:57;;;;;;;10.82;2.20;;;10.50;86.40;;;;;;4975673;28;20062;-77
2024/03/02 12:34:23;;;;;;;11.57;2.20;;;10.50;87.00;;;;;;4973445;28;22241;-76
2024/03/02 12:36:53;;;;;;;6.65;2.10;;;10.40;87.30;;;;;;4975377;28;20081;-77
2024/03/02 12:39:22;;;;;;;11.68;3.00;;;10.40;87.50;;;;;;4973848;28;20022;-75
2024/03/02 12:41:50;;;;;;;8.95;2.67;;;10.30;87.80;;;;;;4951823;28;20023;-76
2024/03/02 12:44:18;;;;;;;10.20;2.88;;;10.30;88.20;;;;;;4951241;28;20324;-77
2024/03/02 12:46:44;;;;;;;8.35;2.50;;;10.30;88.20;;;;;;4968471;28;20035;-78
2024/03/02 12:49:11;;;;;;;8.25;2.28;;;10.30;88.40;;;;;;4969483;28;20019;-76
2024/03/02 12:51:40;;;;;;;8.32;2.28;;;10.30;88.50;;;;;;4974840;28;20031;-77
2024/03/02 12:54:07;;;;;;;9.10;2.40;;;10.20;88.60;;;;;;4972800;28;20061;-75
2024/03/02 12:56:33;;;;;;;8.35;2.53;;;10.30;88.90;;;;;;4976133;28;20049;-76